sensor_id;sensor_type;location;lat;lon;timestamp;temperature;humidity
21895;DHT22;11112;51.270;7.224;2023-11-21T00:00:57;10.80;99.90
21895;DHT22;11112;51.270;7.224;2023-11-21T00:03:27;10.80;99.90
21895;DHT22;11112;51.270;7.224;2023-11-21T00:05:54;10.80;99.90
21895;DHT22;11112;51.270;7.224;2023-11-21T00:08:21;10.80;99.90
21895;DHT22;11112;51.270;7.224;2023-11-21T00:10:48;10.70;99.90
21895;DHT22;11112;51.270;7.224;2023-11-21T00:13:16;10.80;99.90
21895;DHT22;11112;51.270;7.224;2023-11-21T00:15:45;10.70;99.90
21895;DHT22;11112;51.270;7.224;2023-11-21T00:18:12;10.70;99.90
21895;DHT22;11112;51.270;7.224;2023-11-21T00:20:39;10.70;99.90
21895;DHT22;11112;51.270;7.224;2023-11-21T00:23:07;10.70;99.90
21895;DHT22;11112;51.270;7.224;2023-11-21T00:25:35;10.70;99.90
21895;DHT22;11112;51.270;7.224;2023-11-21T00:28:02;10.70;99.90
21895;DHT22;11112;51.270;7.224;2023-11-21T00:30:31;10.70;99.90
21895;DHT22;11112;51.270;7.224;2023-11-21T00:33:02;10.70;99.90
21895;DHT22;11112;51.270;7.224;2023-11-21T00:35:32;10.70;99.90
21895;DHT22;11112;51.270;7.224;2023-11-21T00:37:59;10.70;99.90
21895;DHT22;11112;51.270;7.224;2023-11-21T00:40:27;10.70;99.90
21895;DHT22;11112;51.270;7.224;2023-11-21T00:42:54;10.70;99.90
21895;DHT22;11112;51.270;7.224;2023-11-21T00:45:24;10.70;99.90
21895;DHT22;11112;51.270;7.224;2023-11-21T00:47:51;10.70;99.90
21895;DHT22;11112;51.270;7.224;2023-11-21T00:50:21;10.70;99.90
21895;DHT22;11112;51.270;7.224;2023-11-21T00:52:48;10.70;99.90
21895;DHT22;11112;51.270;7.224;2023-11-21T00:55:17;10.70;99.90
21895;DHT22;11112;51.270;7.224;2023-11-21T00:57:46;10.70;99.90
21895;DHT22;11112;51.270;7.224;2023-11-21T01:00:14;10.70;99.90
21895;DHT22;11112;51.270;7.224;2023-11-21T01:02:43;10.70;99.90
21895;DHT22;11112;51.270;7.224;2023-11-21T01:05:10;10.70;99.90
21895;DHT22;11112;51.270;7.224;2023-11-21T01:07:38;10.70;99.90
21895;DHT22;11112;51.270;7.224;2023-11-21T01:10:07;10.70;99.90
21895;DHT22;11112;51.270;7.224;2023-11-21T01:12:35;10.70;99.90
21895;DHT22;11112;51.270;7.224;2023-11-21T01:15:04;10.70;99.90
21895;DHT22;11112;51.270;7.224;2023-11-21T01:17:32;10.70;99.90
21895;DHT22;11112;51.270;7.224;2023-11-21T01:20:00;10.70;99.90
21895;DHT22;11112;51.270;7.224;2023-11-21T01:22:28;10.70;99.90
21895;DHT22;11112;51.270;7.224;2023-11-21T01:24:57;10.70;99.90
21895;DHT22;11112;51.270;7.224;2023-11-21T01:27:24;10.70;99.90
21895;DHT22;11112;51.270;7.224;2023-11-21T01:29:51;10.60;99.90
21895;DHT22;11112;51.270;7.224;2023-11-21T01:32:19;10.60;99.90
21895;DHT22;11112;51.270;7.224;2023-11-21T01:34:47;10.60;99.90
21895;DHT22;11112;51.270;7.224;2023-11-21T01:37:14;10.60;99.90
21895;DHT22;11112;51.270;7.224;2023-11-21T01:39:43;10.60;99.90
21895;DHT22;11112;51.270;7.224;2023-11-21T01:42:11;10.60;99.90
21895;DHT22;11112;51.270;7.224;2023-11-21T01:44:39;10.60;99.90
21895;DHT22;11112;51.270;7.224;2023-11-21T01:47:07;10.60;99.90
21895;DHT22;11112;51.270;7.224;2023-11-21T01:49:38;10.60;99.90
21895;DHT22;11112;51.270;7.224;2023-11-21T01:52:06;10.60;99.90
21895;DHT22;11112;51.270;7.224;2023-11-21T01:54:33;10.60;99.90
21895;DHT22;11112;51.270;7.224;2023-11-21T01:57:03;10.60;99.90
21895;DHT22;11112;51.270;7.224;2023-11-21T01:59:35;10.60;99.90
21895;DHT22;11112;51.270;7.224;2023-11-21T02:02:04;10.60;99.90
21895;DHT22;11112;51.270;7.224;2023-11-21T02:04:32;10.60;99.90
21895;DHT22;11112;51.270;7.224;2023-11-21T02:06:59;10.60;99.90
21895;DHT22;11112;51.270;7.224;2023-11-21T02:09:27;10.60;99.90
21895;DHT22;11112;51.270;7.224;2023-11-21T02:11:56;10.60;99.90
21895;DHT22;11112;51.270;7.224;2023-11-21T02:14:24;10.60;99.90
21895;DHT22;11112;51.270;7.224;2023-11-21T02:16:54;10.60;99.90
21895;DHT22;11112;51.270;7.224;2023-11-21T02:19:23;10.60;99.90
21895;DHT22;11112;51.270;7.224;2023-11-21T02:21:53;10.70;99.90
21895;DHT22;11112;51.270;7.224;2023-11-21T02:24:23;10.60;99.90
21895;DHT22;11112;51.270;7.224;2023-11-21T02:26:50;10.60;99.90
21895;DHT22;11112;51.270;7.224;2023-11-21T02:29:17;10.60;99.90
21895;DHT22;11112;51.270;7.224;2023-11-21T02:31:51;10.60;99.90
21895;DHT22;11112;51.270;7.224;2023-11-21T02:34:20;10.70;99.90
21895;DHT22;11112;51.270;7.224;2023-11-21T02:36:48;10.70;99.90
21895;DHT22;11112;51.270;7.224;2023-11-21T02:39:17;10.60;99.90
21895;DHT22;11112;51.270;7.224;2023-11-21T02:41:49;10.60;99.90
21895;DHT22;11112;51.270;7.224;2023-11-21T02:44:16;10.60;99.90
21895;DHT22;11112;51.270;7.224;2023-11-21T02:46:43;10.60;99.90
21895;DHT22;11112;51.270;7.224;2023-11-21T02:49:10;10.60;99.90
21895;DHT22;11112;51.270;7.224;2023-11-21T02:51:37;10.70;99.90
21895;DHT22;11112;51.270;7.224;2023-11-21T02:54:05;10.60;99.90
21895;DHT22;11112;51.270;7.224;2023-11-21T02:56:34;10.70;99.90
21895;DHT22;11112;51.270;7.224;2023-11-21T02:59:02;10.60;99.90
21895;DHT22;11112;51.270;7.224;2023-11-21T03:01:30;10.60;99.90
21895;DHT22;11112;51.270;7.224;2023-11-21T03:03:57;10.60;99.90
21895;DHT22;11112;51.270;7.224;2023-11-21T03:06:25;10.70;99.90
21895;DHT22;11112;51.270;7.224;2023-11-21T03:08:52;10.70;99.90
21895;DHT22;11112;51.270;7.224;2023-11-21T03:11:19;10.60;99.90
21895;DHT22;11112;51.270;7.224;2023-11-21T03:13:46;10.60;99.90
21895;DHT22;11112;51.270;7.224;2023-11-21T03:16:16;10.60;99.90
21895;DHT22;11112;51.270;7.224;2023-11-21T03:18:44;10.60;99.90
21895;DHT22;11112;51.270;7.224;2023-11-21T03:21:18;10.60;99.90
21895;DHT22;11112;51.270;7.224;2023-11-21T03:23:44;10.60;99.90
21895;DHT22;11112;51.270;7.224;2023-11-21T03:26:12;10.60;99.90
21895;DHT22;11112;51.270;7.224;2023-11-21T03:28:40;10.60;99.90
21895;DHT22;11112;51.270;7.224;2023-11-21T03:31:07;10.70;99.90
21895;DHT22;11112;51.270;7.224;2023-11-21T03:33:36;10.70;99.90
21895;DHT22;11112;51.270;7.224;2023-11-21T03:36:03;10.70;99.90
21895;DHT22;11112;51.270;7.224;2023-11-21T03:38:31;10.70;99.90
21895;DHT22;11112;51.270;7.224;2023-11-21T03:40:58;10.60;99.90
21895;DHT22;11112;51.270;7.224;2023-11-21T03:43:25;10.60;99.90
21895;DHT22;11112;51.270;7.224;2023-11-21T03:45:55;10.60;99.90
21895;DHT22;11112;51.270;7.224;2023-11-21T03:48:22;10.60;99.90
21895;DHT22;11112;51.270;7.224;2023-11-21T03:50:53;10.60;99.90
21895;DHT22;11112;51.270;7.224;2023-11-21T03:53:20;10.60;99.90
21895;DHT22;11112;51.270;7.224;2023-11-21T03:55:48;10.60;99.90
21895;DHT22;11112;51.270;7.224;2023-11-21T03:58:15;10.60;99.90
21895;DHT22;11112;51.270;7.224;2023-11-21T04:00:44;10.70;99.90
21895;DHT22;11112;51.270;7.224;2023-11-21T04:03:11;10.70;99.90
21895;DHT22;11112;51.270;7.224;2023-11-21T04:05:39;10.70;99.90
21895;DHT22;11112;51.270;7.224;2023-11-21T04:08:08;10.70;99.90
21895;DHT22;11112;51.270;7.224;2023-11-21T04:10:35;10.60;99.90
21895;DHT22;11112;51.270;7.224;2023-11-21T04:13:02;10.70;99.90
21895;DHT22;11112;51.270;7.224;2023-11-21T04:15:29;10.60;99.90
21895;DHT22;11112;51.270;7.224;2023-11-21T04:17:56;10.60;99.90
21895;DHT22;11112;51.270;7.224;2023-11-21T04:20:23;10.60;99.90
21895;DHT22;11112;51.270;7.224;2023-11-21T04:22:50;10.70;99.90
21895;DHT22;11112;51.270;7.224;2023-11-21T04:25:19;10.70;99.90
21895;DHT22;11112;51.270;7.224;2023-11-21T04:27:46;10.70;99.90
21895;DHT22;11112;51.270;7.224;2023-11-21T04:30:14;10.70;99.90
21895;DHT22;11112;51.270;7.224;2023-11-21T04:32:41;10.70;99.90
21895;DHT22;11112;51.270;7.224;2023-11-21T04:35:08;10.70;99.90
21895;DHT22;11112;51.270;7.224;2023-11-21T04:37:36;10.60;99.90
21895;DHT22;11112;51.270;7.224;2023-11-21T04:40:04;10.60;99.90
21895;DHT22;11112;51.270;7.224;2023-11-21T04:42:35;10.60;99.90
21895;DHT22;11112;51.270;7.224;2023-11-21T04:45:03;10.60;99.90
21895;DHT22;11112;51.270;7.224;2023-11-21T04:47:34;10.70;99.90
21895;DHT22;11112;51.270;7.224;2023-11-21T04:50:01;10.60;99.90
21895;DHT22;11112;51.270;7.224;2023-11-21T04:52:29;10.70;99.90
21895;DHT22;11112;51.270;7.224;2023-11-21T04:54:56;10.70;99.90
21895;DHT22;11112;51.270;7.224;2023-11-21T04:57:24;10.70;99.90
21895;DHT22;11112;51.270;7.224;2023-11-21T04:59:53;10.70;99.90
21895;DHT22;11112;51.270;7.224;2023-11-21T05:02:20;10.60;99.90
21895;DHT22;11112;51.270;7.224;2023-11-21T05:04:48;10.60;99.90
21895;DHT22;11112;51.270;7.224;2023-11-21T05:07:15;10.60;99.90
21895;DHT22;11112;51.270;7.224;2023-11-21T05:09:43;10.70;99.90
21895;DHT22;11112;51.270;7.224;2023-11-21T05:12:11;10.70;99.90
21895;DHT22;11112;51.270;7.224;2023-11-21T05:14:40;10.70;99.90
21895;DHT22;11112;51.270;7.224;2023-11-21T05:17:08;10.60;99.90
21895;DHT22;11112;51.270;7.224;2023-11-21T05:19:36;10.60;99.90
21895;DHT22;11112;51.270;7.224;2023-11-21T05:22:04;10.60;99.90
21895;DHT22;11112;51.270;7.224;2023-11-21T05:24:31;10.50;99.90
21895;DHT22;11112;51.270;7.224;2023-11-21T05:26:58;10.60;99.90
21895;DHT22;11112;51.270;7.224;2023-11-21T05:29:25;10.60;99.90
21895;DHT22;11112;51.270;7.224;2023-11-21T05:31:52;10.60;99.90
21895;DHT22;11112;51.270;7.224;2023-11-21T05:34:21;10.60;99.90
21895;DHT22;11112;51.270;7.224;2023-11-21T05:36:49;10.60;99.90
21895;DHT22;11112;51.270;7.224;2023-11-21T05:39:17;10.60;99.90
21895;DHT22;11112;51.270;7.224;2023-11-21T05:41:45;10.60;99.90
21895;DHT22;11112;51.270;7.224;2023-11-21T05:44:12;10.60;99.90
21895;DHT22;11112;51.270;7.224;2023-11-21T05:46:40;10.60;99.90
21895;DHT22;11112;51.270;7.224;2023-11-21T05:49:09;10.60;99.90
21895;DHT22;11112;51.270;7.224;2023-11-21T05:51:37;10.60;99.90
21895;DHT22;11112;51.270;7.224;2023-11-21T05:54:04;10.60;99.90
21895;DHT22;11112;51.270;7.224;2023-11-21T05:56:33;10.60;99.90
21895;DHT22;11112;51.270;7.224;2023-11-21T05:59:00;10.50;99.90
21895;DHT22;11112;51.270;7.224;2023-11-21T06:01:28;10.50;99.90
21895;DHT22;11112;51.270;7.224;2023-11-21T06:03:55;10.50;99.90
21895;DHT22;11112;51.270;7.224;2023-11-21T06:06:23;10.50;99.90
21895;DHT22;11112;51.270;7.224;2023-11-21T06:08:51;10.50;99.90
21895;DHT22;11112;51.270;7.224;2023-11-21T06:11:19;10.50;99.90
21895;DHT22;11112;51.270;7.224;2023-11-21T06:13:46;10.50;99.90
21895;DHT22;11112;51.270;7.224;2023-11-21T06:16:13;10.50;99.90
21895;DHT22;11112;51.270;7.224;2023-11-21T06:18:42;10.50;99.90
21895;DHT22;11112;51.270;7.224;2023-11-21T06:21:10;10.50;99.90
21895;DHT22;11112;51.270;7.224;2023-11-21T06:23:37;10.50;99.90
21895;DHT22;11112;51.270;7.224;2023-11-21T06:26:06;10.50;99.90
21895;DHT22;11112;51.270;7.224;2023-11-21T06:28:35;10.50;99.90
21895;DHT22;11112;51.270;7.224;2023-11-21T06:31:03;10.50;99.90
21895;DHT22;11112;51.270;7.224;2023-11-21T06:33:31;10.50;99.90
21895;DHT22;11112;51.270;7.224;2023-11-21T06:35:58;10.50;99.90
21895;DHT22;11112;51.270;7.224;2023-11-21T06:38:28;10.50;99.90
21895;DHT22;11112;51.270;7.224;2023-11-21T06:40:55;10.50;99.90
21895;DHT22;11112;51.270;7.224;2023-11-21T06:43:25;10.40;99.90
21895;DHT22;11112;51.270;7.224;2023-11-21T06:45:52;10.40;99.90
21895;DHT22;11112;51.270;7.224;2023-11-21T06:48:20;10.50;99.90
21895;DHT22;11112;51.270;7.224;2023-11-21T06:50:47;10.50;99.90
21895;DHT22;11112;51.270;7.224;2023-11-21T06:53:14;10.50;99.90
21895;DHT22;11112;51.270;7.224;2023-11-21T06:55:42;10.50;99.90
21895;DHT22;11112;51.270;7.224;2023-11-21T06:58:10;10.50;99.90
21895;DHT22;11112;51.270;7.224;2023-11-21T07:00:39;10.50;99.90
21895;DHT22;11112;51.270;7.224;2023-11-21T07:03:07;10.50;99.90
21895;DHT22;11112;51.270;7.224;2023-11-21T07:05:34;10.50;99.90
21895;DHT22;11112;51.270;7.224;2023-11-21T07:08:01;10.60;99.90
21895;DHT22;11112;51.270;7.224;2023-11-21T07:10:30;10.50;99.90
21895;DHT22;11112;51.270;7.224;2023-11-21T07:12:59;10.50;99.90
21895;DHT22;11112;51.270;7.224;2023-11-21T07:15:28;10.50;99.90
21895;DHT22;11112;51.270;7.224;2023-11-21T07:17:57;10.50;99.90
21895;DHT22;11112;51.270;7.224;2023-11-21T07:20:24;10.50;99.90
21895;DHT22;11112;51.270;7.224;2023-11-21T07:22:52;10.50;99.90
21895;DHT22;11112;51.270;7.224;2023-11-21T07:25:19;10.50;99.90
21895;DHT22;11112;51.270;7.224;2023-11-21T07:27:47;10.50;99.90
21895;DHT22;11112;51.270;7.224;2023-11-21T07:30:15;10.50;99.90
21895;DHT22;11112;51.270;7.224;2023-11-21T07:32:43;10.50;99.90
21895;DHT22;11112;51.270;7.224;2023-11-21T07:35:13;10.50;99.90
21895;DHT22;11112;51.270;7.224;2023-11-21T07:37:40;10.50;99.90
21895;DHT22;11112;51.270;7.224;2023-11-21T07:40:09;10.50;99.90
21895;DHT22;11112;51.270;7.224;2023-11-21T07:42:37;10.50;99.90
21895;DHT22;11112;51.270;7.224;2023-11-21T07:45:05;10.50;99.90
21895;DHT22;11112;51.270;7.224;2023-11-21T07:47:34;10.50;99.90
21895;DHT22;11112;51.270;7.224;2023-11-21T07:50:02;10.50;99.90
21895;DHT22;11112;51.270;7.224;2023-11-21T07:52:31;10.50;99.90
21895;DHT22;11112;51.270;7.224;2023-11-21T07:54:58;10.50;99.90
21895;DHT22;11112;51.270;7.224;2023-11-21T07:57:25;10.50;99.90
21895;DHT22;11112;51.270;7.224;2023-11-21T07:59:52;10.60;99.90
21895;DHT22;11112;51.270;7.224;2023-11-21T08:02:19;10.60;99.90
21895;DHT22;11112;51.270;7.224;2023-11-21T08:04:47;10.60;99.90
21895;DHT22;11112;51.270;7.224;2023-11-21T08:07:15;10.60;99.90
21895;DHT22;11112;51.270;7.224;2023-11-21T08:09:44;10.60;99.90
21895;DHT22;11112;51.270;7.224;2023-11-21T08:12:12;10.60;99.90
21895;DHT22;11112;51.270;7.224;2023-11-21T08:14:40;10.60;99.90
21895;DHT22;11112;51.270;7.224;2023-11-21T08:17:08;10.60;99.90
21895;DHT22;11112;51.270;7.224;2023-11-21T08:19:36;10.60;99.90
21895;DHT22;11112;51.270;7.224;2023-11-21T08:22:04;10.60;99.90
21895;DHT22;11112;51.270;7.224;2023-11-21T08:24:33;10.60;99.90
21895;DHT22;11112;51.270;7.224;2023-11-21T08:27:02;10.60;99.90
21895;DHT22;11112;51.270;7.224;2023-11-21T08:29:30;10.60;99.90
21895;DHT22;11112;51.270;7.224;2023-11-21T08:31:57;10.60;99.90
21895;DHT22;11112;51.270;7.224;2023-11-21T08:34:25;10.60;99.90
21895;DHT22;11112;51.270;7.224;2023-11-21T08:36:53;10.70;99.90
21895;DHT22;11112;51.270;7.224;2023-11-21T08:39:21;10.70;99.90
21895;DHT22;11112;51.270;7.224;2023-11-21T08:41:49;10.70;99.90
21895;DHT22;11112;51.270;7.224;2023-11-21T08:44:18;10.70;99.90
21895;DHT22;11112;51.270;7.224;2023-11-21T08:46:45;10.70;99.90
21895;DHT22;11112;51.270;7.224;2023-11-21T08:49:12;10.70;99.90
21895;DHT22;11112;51.270;7.224;2023-11-21T08:51:41;10.70;99.90
21895;DHT22;11112;51.270;7.224;2023-11-21T08:54:08;10.60;99.90
21895;DHT22;11112;51.270;7.224;2023-11-21T08:56:35;10.60;99.90
21895;DHT22;11112;51.270;7.224;2023-11-21T08:59:02;10.70;99.90
21895;DHT22;11112;51.270;7.224;2023-11-21T09:01:31;10.70;99.90
21895;DHT22;11112;51.270;7.224;2023-11-21T09:04:01;10.70;99.90
21895;DHT22;11112;51.270;7.224;2023-11-21T09:06:29;10.70;99.90
21895;DHT22;11112;51.270;7.224;2023-11-21T09:08:56;10.70;99.90
21895;DHT22;11112;51.270;7.224;2023-11-21T09:11:23;10.70;99.90
21895;DHT22;11112;51.270;7.224;2023-11-21T09:13:52;10.70;99.90
21895;DHT22;11112;51.270;7.224;2023-11-21T09:16:20;10.70;99.90
21895;DHT22;11112;51.270;7.224;2023-11-21T09:18:48;10.70;99.90
21895;DHT22;11112;51.270;7.224;2023-11-21T09:21:15;10.70;99.90
21895;DHT22;11112;51.270;7.224;2023-11-21T09:23:43;10.80;99.90
21895;DHT22;11112;51.270;7.224;2023-11-21T09:26:11;10.80;99.90
21895;DHT22;11112;51.270;7.224;2023-11-21T09:28:41;10.80;99.90
21895;DHT22;11112;51.270;7.224;2023-11-21T09:31:12;10.80;99.90
21895;DHT22;11112;51.270;7.224;2023-11-21T09:33:41;10.90;99.90
21895;DHT22;11112;51.270;7.224;2023-11-21T09:36:12;10.80;99.90
21895;DHT22;11112;51.270;7.224;2023-11-21T09:38:40;10.80;99.90
21895;DHT22;11112;51.270;7.224;2023-11-21T09:41:19;10.80;99.90
21895;DHT22;11112;51.270;7.224;2023-11-21T09:43:52;10.90;99.90
21895;DHT22;11112;51.270;7.224;2023-11-21T09:46:22;10.90;99.90
21895;DHT22;11112;51.270;7.224;2023-11-21T09:48:51;10.80;99.90
21895;DHT22;11112;51.270;7.224;2023-11-21T09:51:22;10.90;99.90
21895;DHT22;11112;51.270;7.224;2023-11-21T09:53:51;10.90;99.90
21895;DHT22;11112;51.270;7.224;2023-11-21T09:56:18;10.90;99.90
21895;DHT22;11112;51.270;7.224;2023-11-21T09:58:51;10.90;99.90
21895;DHT22;11112;51.270;7.224;2023-11-21T10:01:21;10.90;99.90
21895;DHT22;11112;51.270;7.224;2023-11-21T10:03:50;10.90;99.90
21895;DHT22;11112;51.270;7.224;2023-11-21T10:06:20;10.90;99.90
21895;DHT22;11112;51.270;7.224;2023-11-21T10:08:48;10.90;99.90
21895;DHT22;11112;51.270;7.224;2023-11-21T10:11:17;11.00;99.90
21895;DHT22;11112;51.270;7.224;2023-11-21T10:13:48;11.00;99.90
21895;DHT22;11112;51.270;7.224;2023-11-21T10:16:19;11.00;99.90
21895;DHT22;11112;51.270;7.224;2023-11-21T10:18:49;11.00;99.90
21895;DHT22;11112;51.270;7.224;2023-11-21T10:21:21;11.00;99.90
21895;DHT22;11112;51.270;7.224;2023-11-21T10:23:50;11.00;99.90
21895;DHT22;11112;51.270;7.224;2023-11-21T10:26:18;11.10;99.90
21895;DHT22;11112;51.270;7.224;2023-11-21T10:28:55;11.00;99.90
21895;DHT22;11112;51.270;7.224;2023-11-21T10:31:23;11.00;99.90
21895;DHT22;11112;51.270;7.224;2023-11-21T10:33:50;11.00;99.90
21895;DHT22;11112;51.270;7.224;2023-11-21T10:36:27;11.10;99.90
21895;DHT22;11112;51.270;7.224;2023-11-21T10:38:55;11.00;99.90
21895;DHT22;11112;51.270;7.224;2023-11-21T10:41:23;11.10;99.90
21895;DHT22;11112;51.270;7.224;2023-11-21T10:43:53;11.10;99.90
21895;DHT22;11112;51.270;7.224;2023-11-21T10:46:22;11.10;99.90
21895;DHT22;11112;51.270;7.224;2023-11-21T10:48:52;11.10;99.90
21895;DHT22;11112;51.270;7.224;2023-11-21T10:51:21;11.10;99.90
21895;DHT22;11112;51.270;7.224;2023-11-21T10:53:51;11.20;99.90
21895;DHT22;11112;51.270;7.224;2023-11-21T10:56:19;11.10;99.90
21895;DHT22;11112;51.270;7.224;2023-11-21T10:58:50;11.10;99.90
21895;DHT22;11112;51.270;7.224;2023-11-21T11:01:18;11.10;99.90
21895;DHT22;11112;51.270;7.224;2023-11-21T11:03:47;11.20;99.90
21895;DHT22;11112;51.270;7.224;2023-11-21T11:06:15;11.20;99.90
21895;DHT22;11112;51.270;7.224;2023-11-21T11:08:44;11.20;99.90
21895;DHT22;11112;51.270;7.224;2023-11-21T11:11:12;11.20;99.90
21895;DHT22;11112;51.270;7.224;2023-11-21T11:13:44;11.20;99.90
21895;DHT22;11112;51.270;7.224;2023-11-21T11:16:12;11.20;99.90
21895;DHT22;11112;51.270;7.224;2023-11-21T11:18:42;11.20;99.90
21895;DHT22;11112;51.270;7.224;2023-11-21T11:21:20;11.20;99.90
21895;DHT22;11112;51.270;7.224;2023-11-21T11:24:05;11.10;99.90
21895;DHT22;11112;51.270;7.224;2023-11-21T11:26:47;11.20;99.90
21895;DHT22;11112;51.270;7.224;2023-11-21T11:29:23;11.20;99.90
21895;DHT22;11112;51.270;7.224;2023-11-21T11:32:07;11.10;99.90
21895;DHT22;11112;51.270;7.224;2023-11-21T11:34:44;11.10;99.90
21895;DHT22;11112;51.270;7.224;2023-11-21T11:37:15;11.10;99.90
21895;DHT22;11112;51.270;7.224;2023-11-21T11:39:43;11.10;99.90
21895;DHT22;11112;51.270;7.224;2023-11-21T11:42:14;11.10;99.90
21895;DHT22;11112;51.270;7.224;2023-11-21T11:44:51;11.20;99.90
21895;DHT22;11112;51.270;7.224;2023-11-21T11:47:24;11.20;99.90
21895;DHT22;11112;51.270;7.224;2023-11-21T11:49:57;11.30;99.90
21895;DHT22;11112;51.270;7.224;2023-11-21T11:52:40;11.30;99.90
21895;DHT22;11112;51.270;7.224;2023-11-21T11:55:10;11.20;99.90
21895;DHT22;11112;51.270;7.224;2023-11-21T11:57:41;11.20;99.90
21895;DHT22;11112;51.270;7.224;2023-11-21T12:00:14;11.10;99.90
21895;DHT22;11112;51.270;7.224;2023-11-21T12:02:46;11.20;99.90
21895;DHT22;11112;51.270;7.224;2023-11-21T12:05:15;11.20;99.90
21895;DHT22;11112;51.270;7.224;2023-11-21T12:07:45;11.20;99.90
21895;DHT22;11112;51.270;7.224;2023-11-21T12:10:14;11.20;99.90
21895;DHT22;11112;51.270;7.224;2023-11-21T12:12:45;11.20;99.90
21895;DHT22;11112;51.270;7.224;2023-11-21T12:15:14;11.20;99.90
21895;DHT22;11112;51.270;7.224;2023-11-21T12:17:42;11.20;99.90
21895;DHT22;11112;51.270;7.224;2023-11-21T12:20:11;11.20;99.90
21895;DHT22;11112;51.270;7.224;2023-11-21T12:22:44;11.20;99.90
21895;DHT22;11112;51.270;7.224;2023-11-21T12:25:15;11.20;99.90
21895;DHT22;11112;51.270;7.224;2023-11-21T12:27:46;11.20;99.90
21895;DHT22;11112;51.270;7.224;2023-11-21T12:30:16;11.20;99.90
21895;DHT22;11112;51.270;7.224;2023-11-21T12:32:45;11.30;99.90
21895;DHT22;11112;51.270;7.224;2023-11-21T12:35:15;11.20;99.90
21895;DHT22;11112;51.270;7.224;2023-11-21T12:37:45;11.20;99.90
21895;DHT22;11112;51.270;7.224;2023-11-21T12:40:15;11.20;99.90
21895;DHT22;11112;51.270;7.224;2023-11-21T12:42:46;11.10;99.90
21895;DHT22;11112;51.270;7.224;2023-11-21T12:45:21;11.10;99.90
21895;DHT22;11112;51.270;7.224;2023-11-21T12:47:52;11.10;99.90
21895;DHT22;11112;51.270;7.224;2023-11-21T12:50:23;11.10;99.90
21895;DHT22;11112;51.270;7.224;2023-11-21T12:52:58;11.10;99.90
21895;DHT22;11112;51.270;7.224;2023-11-21T12:55:29;11.20;99.90
21895;DHT22;11112;51.270;7.224;2023-11-21T12:58:01;11.20;99.90
21895;DHT22;11112;51.270;7.224;2023-11-21T13:00:38;11.20;99.90
21895;DHT22;11112;51.270;7.224;2023-11-21T13:03:08;11.20;99.90
21895;DHT22;11112;51.270;7.224;2023-11-21T13:05:39;11.20;99.90
21895;DHT22;11112;51.270;7.224;2023-11-21T13:08:08;11.20;99.90
21895;DHT22;11112;51.270;7.224;2023-11-21T13:10:39;11.20;99.90
21895;DHT22;11112;51.270;7.224;2023-11-21T13:13:12;11.20;99.90
21895;DHT22;11112;51.270;7.224;2023-11-21T13:15:47;11.20;99.90
21895;DHT22;11112;51.270;7.224;2023-11-21T13:18:15;11.30;99.90
21895;DHT22;11112;51.270;7.224;2023-11-21T13:20:44;11.30;99.90
21895;DHT22;11112;51.270;7.224;2023-11-21T13:23:12;11.30;99.90
21895;DHT22;11112;51.270;7.224;2023-11-21T13:25:44;11.20;99.90
21895;DHT22;11112;51.270;7.224;2023-11-21T13:28:14;11.20;99.90
21895;DHT22;11112;51.270;7.224;2023-11-21T13:30:43;11.30;99.90
21895;DHT22;11112;51.270;7.224;2023-11-21T13:33:11;11.20;99.90
21895;DHT22;11112;51.270;7.224;2023-11-21T13:35:45;11.20;99.90
21895;DHT22;11112;51.270;7.224;2023-11-21T13:38:19;11.20;99.90
21895;DHT22;11112;51.270;7.224;2023-11-21T13:40:49;11.20;99.90
21895;DHT22;11112;51.270;7.224;2023-11-21T13:43:22;11.10;99.90
21895;DHT22;11112;51.270;7.224;2023-11-21T13:45:51;11.10;99.90
21895;DHT22;11112;51.270;7.224;2023-11-21T13:48:25;11.00;99.90
21895;DHT22;11112;51.270;7.224;2023-11-21T13:50:58;11.00;99.90
21895;DHT22;11112;51.270;7.224;2023-11-21T13:53:31;11.00;99.90
21895;DHT22;11112;51.270;7.224;2023-11-21T13:56:02;11.00;99.90
21895;DHT22;11112;51.270;7.224;2023-11-21T13:58:31;11.00;99.90
21895;DHT22;11112;51.270;7.224;2023-11-21T14:01:07;11.00;99.90
21895;DHT22;11112;51.270;7.224;2023-11-21T14:03:47;10.90;99.90
21895;DHT22;11112;51.270;7.224;2023-11-21T14:06:21;11.00;99.90
21895;DHT22;11112;51.270;7.224;2023-11-21T14:08:52;11.00;99.90
21895;DHT22;11112;51.270;7.224;2023-11-21T14:11:22;10.90;99.90
21895;DHT22;11112;51.270;7.224;2023-11-21T14:13:50;10.80;99.90
21895;DHT22;11112;51.270;7.224;2023-11-21T14:16:17;10.80;99.90
21895;DHT22;11112;51.270;7.224;2023-11-21T14:18:44;10.80;99.90
21895;DHT22;11112;51.270;7.224;2023-11-21T14:21:21;10.80;99.90
21895;DHT22;11112;51.270;7.224;2023-11-21T14:23:48;10.80;99.90
21895;DHT22;11112;51.270;7.224;2023-11-21T14:26:15;10.80;99.90
21895;DHT22;11112;51.270;7.224;2023-11-21T14:28:43;10.90;99.90
21895;DHT22;11112;51.270;7.224;2023-11-21T14:31:12;10.90;99.90
21895;DHT22;11112;51.270;7.224;2023-11-21T14:33:42;10.90;99.90
21895;DHT22;11112;51.270;7.224;2023-11-21T14:36:10;10.90;99.90
21895;DHT22;11112;51.270;7.224;2023-11-21T14:38:38;10.90;99.90
21895;DHT22;11112;51.270;7.224;2023-11-21T14:41:06;10.90;99.90
21895;DHT22;11112;51.270;7.224;2023-11-21T14:43:34;10.90;99.90
21895;DHT22;11112;51.270;7.224;2023-11-21T14:46:02;10.90;99.90
21895;DHT22;11112;51.270;7.224;2023-11-21T14:48:33;10.90;99.90
21895;DHT22;11112;51.270;7.224;2023-11-21T14:51:08;10.90;99.90
21895;DHT22;11112;51.270;7.224;2023-11-21T14:53:57;11.00;99.90
21895;DHT22;11112;51.270;7.224;2023-11-21T14:56:32;10.90;99.90
21895;DHT22;11112;51.270;7.224;2023-11-21T14:59:00;10.80;99.90
21895;DHT22;11112;51.270;7.224;2023-11-21T15:01:32;10.80;99.90
21895;DHT22;11112;51.270;7.224;2023-11-21T15:04:22;10.90;99.90
21895;DHT22;11112;51.270;7.224;2023-11-21T15:07:00;10.80;99.90
21895;DHT22;11112;51.270;7.224;2023-11-21T15:09:27;10.80;99.90
21895;DHT22;11112;51.270;7.224;2023-11-21T15:12:07;10.80;99.90
21895;DHT22;11112;51.270;7.224;2023-11-21T15:14:42;10.80;99.90
21895;DHT22;11112;51.270;7.224;2023-11-21T15:17:11;10.70;99.90
21895;DHT22;11112;51.270;7.224;2023-11-21T15:19:43;10.80;99.90
21895;DHT22;11112;51.270;7.224;2023-11-21T15:22:10;10.80;99.90
21895;DHT22;11112;51.270;7.224;2023-11-21T15:24:40;10.80;99.90
21895;DHT22;11112;51.270;7.224;2023-11-21T15:27:10;10.80;99.90
21895;DHT22;11112;51.270;7.224;2023-11-21T15:29:37;10.80;99.90
21895;DHT22;11112;51.270;7.224;2023-11-21T15:32:06;10.80;99.90
21895;DHT22;11112;51.270;7.224;2023-11-21T15:34:33;10.80;99.90
21895;DHT22;11112;51.270;7.224;2023-11-21T15:37:03;10.70;99.90
21895;DHT22;11112;51.270;7.224;2023-11-21T15:39:31;10.70;99.90
21895;DHT22;11112;51.270;7.224;2023-11-21T15:41:59;10.70;99.90